Time;durP1;ratioP1;P1;durP2;ratioP2;P2;SDS_P1;SDS_P2;PMS_P1;PMS_P2;Temp;Humidity;BMP_temperature;BMP_pressure;BME280_temperature;BME280_humidity;BME280_pressure;Samples;Min_cycle;Max_cycle;Signal;HPM_P1;HPM_P2
2021/12/11 00:00:30;;;;;;;240.50;42.70;;;1.40;99.90;;;;;;5004515;28;20124;-79
2021/12/11 00:03:07;;;;;;;211.73;43.08;;;1.40;99.90;;;;;;5007334;28;20056;-80
2021/12/11 00:05:37;;;;;;;226.10;44.72;;;1.40;99.90;;;;;;5017323;28;20064;-80
2021/12/11 00:08:06;;;;;;;225.15;42.45;;;1.40;99.90;;;;;;5010687;28;20142;-80
2021/12/11 00:10:41;;;;;;;248.77;46.40;;;1.40;99.90;;;;;;5013614;28;20045;-80
2021/12/11 00:13:14;;;;;;;224.88;45.25;;;1.40;99.90;;;;;;5010095;28;20148;-80
2021/12/11 00:15:44;;;;;;;217.52;44.08;;;1.40;99.90;;;;;;5006218;28;20049;-80
2021/12/11 00:18:21;;;;;;;249.30;43.92;;;1.40;99.90;;;;;;5006611;28;20140;-80
2021/12/11 00:21:05;;;;;;;240.65;44.75;;;1.40;99.90;;;;;;5005501;28;20495;-80
2021/12/11 00:23:38;;;;;;;240.88;47.15;;;1.50;99.90;;;;;;5008106;28;20136;-81
2021/12/11 00:26:09;;;;;;;228.32;46.78;;;1.40;99.90;;;;;;5009404;28;20109;-80
2021/12/11 00:28:48;;;;;;;267.67;49.05;;;1.50;99.90;;;;;;5011056;28;20325;-80
2021/12/11 00:31:17;;;;;;;231.05;42.50;;;1.50;99.90;;;;;;5023797;28;20144;-80
2021/12/11 00:33:45;;;;;;;238.23;46.95;;;1.50;99.90;;;;;;5030271;28;20164;-80
2021/12/11 00:36:14;;;;;;;263.85;46.38;;;1.50;99.90;;;;;;5012750;28;20140;-80
2021/12/11 00:38:43;;;;;;;252.80;46.95;;;1.40;99.90;;;;;;4993820;28;20436;-80
2021/12/11 00:41:14;;;;;;;248.48;46.30;;;1.50;99.90;;;;;;5007950;28;20522;-80
2021/12/11 00:43:42;;;;;;;243.63;46.17;;;1.40;99.90;;;;;;5025505;28;20057;-80
2021/12/11 00:46:14;;;;;;;271.77;47.08;;;1.40;99.90;;;;;;5011268;28;20089;-80
2021/12/11 00:48:42;;;;;;;267.00;49.75;;;1.50;99.90;;;;;;5010158;28;20570;-80
2021/12/11 00:51:19;;;;;;;256.65;48.13;;;1.50;99.90;;;;;;5009428;28;20042;-80
2021/12/11 00:53:53;;;;;;;235.35;47.28;;;1.40;99.90;;;;;;5009129;28;20092;-80
2021/12/11 00:56:25;;;;;;;231.40;45.70;;;1.50;99.90;;;;;;4996653;28;20089;-80
2021/12/11 00:58:55;;;;;;;231.35;45.40;;;1.50;99.90;;;;;;4992002;28;20141;-79
2021/12/11 01:01:34;;;;;;;264.00;46.85;;;1.50;99.90;;;;;;4999144;28;20042;-79
2021/12/11 01:04:04;;;;;;;267.27;44.95;;;1.50;99.90;;;;;;5017715;28;20056;-79
2021/12/11 01:06:35;;;;;;;248.88;46.60;;;1.50;99.90;;;;;;5011615;28;20078;-79
2021/12/11 01:09:15;;;;;;;221.05;43.85;;;1.50;99.90;;;;;;5011275;28;20557;-80
2021/12/11 01:12:10;;;;;;;232.88;45.70;;;1.50;99.90;;;;;;5017080;28;20129;-80
2021/12/11 01:15:07;;;;;;;264.17;45.37;;;1.50;99.90;;;;;;4989089;28;20104;-80
2021/12/11 01:17:44;;;;;;;263.02;43.83;;;1.50;99.90;;;;;;5011335;28;20054;-80
2021/12/11 01:20:34;;;;;;;244.15;43.95;;;1.50;99.90;;;;;;4994186;28;20523;-80
2021/12/11 01:23:17;;;;;;;209.20;40.92;;;1.50;99.90;;;;;;4995757;28;20133;-80
2021/12/11 01:25:45;;;;;;;226.27;43.95;;;1.50;99.90;;;;;;5007406;28;20045;-80
2021/12/11 01:28:14;;;;;;;246.45;45.38;;;1.50;99.90;;;;;;5005488;28;20158;-80
2021/12/11 01:30:43;;;;;;;262.67;45.60;;;1.60;99.90;;;;;;5017437;28;20124;-79
2021/12/11 01:33:10;;;;;;;229.98;44.10;;;1.50;99.90;;;;;;5023222;28;20109;-80
2021/12/11 01:35:37;;;;;;;248.38;44.05;;;1.60;99.90;;;;;;5008038;28;20140;-80
2021/12/11 01:38:28;;;;;;;258.00;46.88;;;1.60;99.90;;;;;;5010722;28;20066;-80
2021/12/11 01:41:00;;;;;;;234.43;44.10;;;1.60;99.90;;;;;;5021829;28;20087;-80
2021/12/11 01:43:29;;;;;;;247.35;45.60;;;1.60;99.90;;;;;;5015835;28;20084;-80
2021/12/11 01:45:58;;;;;;;228.13;44.33;;;1.60;99.90;;;;;;5010164;28;20129;-80
2021/12/11 01:48:32;;;;;;;256.77;47.38;;;1.60;99.90;;;;;;4994159;28;20062;-80
2021/12/11 01:51:25;;;;;;;234.43;41.93;;;1.60;99.90;;;;;;4996692;28;20081;-80
2021/12/11 01:53:57;;;;;;;189.02;39.63;;;1.60;99.90;;;;;;5007126;28;20136;-80
2021/12/11 01:56:27;;;;;;;238.27;42.92;;;1.60;99.90;;;;;;4996293;28;20546;-80
2021/12/11 01:59:05;;;;;;;220.05;44.40;;;1.50;99.90;;;;;;5013606;28;20057;-79
2021/12/11 02:01:41;;;;;;;248.77;45.92;;;1.60;99.90;;;;;;5004917;28;20073;-79
2021/12/11 02:04:12;;;;;;;245.55;44.08;;;1.60;99.90;;;;;;5033442;28;20053;-79
2021/12/11 02:06:42;;;;;;;211.85;39.17;;;1.60;99.90;;;;;;5002190;28;20042;-79
2021/12/11 02:09:20;;;;;;;234.00;44.08;;;1.70;99.90;;;;;;4995142;28;20444;-80
2021/12/11 02:11:52;;;;;;;202.95;40.00;;;1.70;99.90;;;;;;5030303;28;20487;-79
2021/12/11 02:14:26;;;;;;;225.70;42.05;;;1.60;99.90;;;;;;4994876;28;20141;-79
2021/12/11 02:16:54;;;;;;;229.50;42.30;;;1.60;99.90;;;;;;4995276;28;20133;-79
2021/12/11 02:19:30;;;;;;;204.50;40.60;;;1.60;99.90;;;;;;4996347;28;20069;-79
2021/12/11 02:22:00;;;;;;;213.65;41.13;;;1.70;99.90;;;;;;5002630;28;20585;-80
2021/12/11 02:24:46;;;;;;;205.07;40.45;;;1.60;99.90;;;;;;5010346;28;20081;-79
2021/12/11 02:27:27;;;;;;;207.27;40.28;;;1.60;99.90;;;;;;5000571;28;20086;-79
2021/12/11 02:29:57;;;;;;;208.23;38.50;;;1.60;99.90;;;;;;5017696;28;20104;-80
2021/12/11 02:32:32;;;;;;;218.27;38.67;;;1.60;99.90;;;;;;5013397;28;20458;-80
2021/12/11 02:35:14;;;;;;;205.63;40.25;;;1.60;99.90;;;;;;5014389;28;20132;-80
2021/12/11 02:37:57;;;;;;;211.27;39.42;;;1.60;99.90;;;;;;5018403;28;20757;-80
2021/12/11 02:40:43;;;;;;;187.27;35.00;;;1.60;99.90;;;;;;5010822;28;20132;-80
2021/12/11 02:43:28;;;;;;;196.15;37.25;;;1.60;99.90;;;;;;4984797;28;20101;-80
2021/12/11 02:45:55;;;;;;;196.05;38.55;;;1.60;99.90;;;;;;4994579;28;20224;-80
2021/12/11 02:48:47;;;;;;;220.15;39.30;;;1.60;99.90;;;;;;5012703;28;20057;-80
2021/12/11 02:51:27;;;;;;;189.40;37.78;;;1.60;99.90;;;;;;5012352;28;20061;-80
2021/12/11 02:54:04;;;;;;;223.10;38.25;;;1.60;99.90;;;;;;5016826;28;20053;-80
2021/12/11 02:56:38;;;;;;;183.63;37.90;;;1.60;99.90;;;;;;5012883;28;20081;-80
2021/12/11 02:59:15;;;;;;;214.63;37.25;;;1.50;99.90;;;;;;5012177;28;20076;-80
2021/12/11 03:01:47;;;;;;;200.85;40.13;;;1.60;99.90;;;;;;5003743;28;20077;-80
2021/12/11 03:04:24;;;;;;;211.25;38.65;;;1.60;99.90;;;;;;4998548;28;20047;-79
2021/12/11 03:06:53;;;;;;;198.93;36.05;;;1.50;99.90;;;;;;4975132;28;20133;-79
2021/12/11 03:09:24;;;;;;;191.43;38.38;;;1.50;99.90;;;;;;4979478;28;20074;-79
2021/12/11 03:11:54;;;;;;;209.60;37.13;;;1.60;99.90;;;;;;5029926;28;20128;-79
2021/12/11 03:14:23;;;;;;;180.15;36.60;;;1.50;99.90;;;;;;5011953;28;20149;-79
2021/12/11 03:16:51;;;;;;;177.18;34.75;;;1.50;99.90;;;;;;5010159;28;20141;-79
2021/12/11 03:19:23;;;;;;;179.85;36.50;;;1.50;99.90;;;;;;5009317;28;20073;-78
2021/12/11 03:21:51;;;;;;;194.82;37.67;;;1.60;99.90;;;;;;5011374;28;20073;-78
2021/12/11 03:24:23;;;;;;;193.70;37.58;;;1.50;99.90;;;;;;5011535;28;20065;-79
2021/12/11 03:26:52;;;;;;;181.50;36.67;;;1.60;99.90;;;;;;5011767;28;20155;-79
2021/12/11 03:29:19;;;;;;;195.02;39.88;;;1.60;99.90;;;;;;5005846;28;20077;-78
2021/12/11 03:31:47;;;;;;;198.63;39.15;;;1.50;99.90;;;;;;5016049;28;20065;-78
2021/12/11 03:34:20;;;;;;;181.20;36.10;;;1.60;99.90;;;;;;5006645;28;20073;-78
2021/12/11 03:36:48;;;;;;;195.90;38.78;;;1.60;99.90;;;;;;5009263;28;20904;-78
2021/12/11 03:39:18;;;;;;;207.98;38.45;;;1.60;99.90;;;;;;4990430;28;20046;-79
2021/12/11 03:41:49;;;;;;;205.05;38.33;;;1.60;99.90;;;;;;5027970;28;20132;-79
2021/12/11 03:44:17;;;;;;;198.05;40.47;;;1.60;99.90;;;;;;4993328;28;20137;-78
2021/12/11 03:46:46;;;;;;;188.35;38.90;;;1.60;99.90;;;;;;5001503;28;20112;-79
2021/12/11 03:49:17;;;;;;;187.15;37.20;;;1.60;99.90;;;;;;5011806;28;20136;-78
2021/12/11 03:51:47;;;;;;;174.20;36.35;;;1.70;99.90;;;;;;5011163;28;20084;-79
2021/12/11 03:54:23;;;;;;;186.95;36.75;;;1.70;99.90;;;;;;5005539;28;20133;-79
2021/12/11 03:56:51;;;;;;;184.38;35.83;;;1.70;99.90;;;;;;5009579;28;20132;-78
2021/12/11 03:59:18;;;;;;;177.07;35.67;;;1.70;99.90;;;;;;5011958;28;20077;-78
2021/12/11 04:01:49;;;;;;;163.70;34.60;;;1.70;99.90;;;;;;5025808;28;20501;-79
2021/12/11 04:04:27;;;;;;;182.68;36.85;;;1.70;99.90;;;;;;5001420;28;20061;-80
2021/12/11 04:06:55;;;;;;;193.00;37.70;;;1.70;99.90;;;;;;4993626;28;20730;-80
2021/12/11 04:09:24;;;;;;;188.43;34.78;;;1.70;99.90;;;;;;4994298;28;20085;-81
2021/12/11 04:11:53;;;;;;;191.40;35.53;;;1.70;99.90;;;;;;5026073;28;20660;-80
2021/12/11 04:14:24;;;;;;;195.23;36.97;;;1.70;99.90;;;;;;5008402;28;20575;-80
2021/12/11 04:16:52;;;;;;;186.05;37.63;;;1.70;99.90;;;;;;4991425;28;20133;-80
2021/12/11 04:19:20;;;;;;;168.63;36.30;;;1.70;99.90;;;;;;4983717;28;20046;-80
2021/12/11 04:21:47;;;;;;;188.80;35.72;;;1.70;99.90;;;;;;4991578;28;20085;-80
2021/12/11 04:24:16;;;;;;;186.43;37.50;;;1.60;99.90;;;;;;4977463;28;20126;-80
2021/12/11 04:26:45;;;;;;;195.63;37.38;;;1.60;99.90;;;;;;5011389;28;20056;-80
2021/12/11 04:29:12;;;;;;;199.38;37.63;;;1.70;99.90;;;;;;5010823;28;20042;-80
2021/12/11 04:31:43;;;;;;;202.20;37.42;;;1.60;99.90;;;;;;4981738;28;20125;-80
2021/12/11 04:34:14;;;;;;;200.02;37.38;;;1.60;99.90;;;;;;4993722;28;20148;-80
2021/12/11 04:36:50;;;;;;;193.57;36.72;;;1.50;99.90;;;;;;5009843;28;20065;-80
2021/12/11 04:39:20;;;;;;;184.60;36.75;;;1.50;99.90;;;;;;5010993;28;20503;-79
2021/12/11 04:41:57;;;;;;;194.95;35.72;;;1.60;99.90;;;;;;4999770;28;20588;-80
2021/12/11 04:44:38;;;;;;;189.85;37.80;;;1.60;99.90;;;;;;5008501;28;20133;-80
2021/12/11 04:47:16;;;;;;;203.10;37.80;;;1.60;99.90;;;;;;4979023;28;20137;-80
2021/12/11 04:49:51;;;;;;;192.40;36.75;;;1.50;99.90;;;;;;4980271;28;20046;-80
2021/12/11 04:52:29;;;;;;;190.55;37.25;;;1.60;99.90;;;;;;5014014;28;20054;-80
2021/12/11 04:55:18;;;;;;;190.30;38.28;;;1.60;99.90;;;;;;5011102;28;20212;-80
2021/12/11 05:01:07;;;;;;;158.07;35.10;;;1.50;99.90;;;;;;5010133;28;20080;-80
2021/12/11 05:09:21;;;;;;;192.98;37.13;;;1.40;99.90;;;;;;5018662;28;20065;-80
2021/12/11 05:12:20;;;;;;;170.77;35.97;;;1.50;99.90;;;;;;5015411;28;20586;-80
2021/12/11 05:14:47;;;;;;;177.07;36.92;;;1.50;99.90;;;;;;5017607;28;20073;-80
2021/12/11 05:17:14;;;;;;;218.32;39.50;;;1.50;99.90;;;;;;4993060;28;20084;-80
2021/12/11 05:19:42;;;;;;;191.00;38.17;;;1.50;99.90;;;;;;5015353;28;20132;-80
2021/12/11 05:22:10;;;;;;;197.00;37.90;;;1.50;99.90;;;;;;5000363;28;20145;-80
2021/12/11 05:24:41;;;;;;;204.38;39.85;;;1.50;99.90;;;;;;5023303;28;20144;-79
2021/12/11 05:27:08;;;;;;;212.40;37.72;;;1.40;99.90;;;;;;5014209;28;20511;-79
2021/12/11 05:29:36;;;;;;;232.45;41.20;;;1.50;99.90;;;;;;5011631;28;20065;-79
2021/12/11 05:32:06;;;;;;;233.23;37.88;;;1.40;99.90;;;;;;5010931;28;20154;-80
2021/12/11 05:34:38;;;;;;;229.23;39.40;;;1.40;99.90;;;;;;5027108;28;20046;-80
2021/12/11 05:37:05;;;;;;;248.02;45.17;;;1.50;99.90;;;;;;5012650;28;20073;-80
2021/12/11 05:39:32;;;;;;;234.52;39.03;;;1.40;99.90;;;;;;5014128;28;20169;-80
2021/12/11 05:41:59;;;;;;;223.85;40.38;;;1.40;99.90;;;;;;5009359;28;20057;-80
2021/12/11 05:44:26;;;;;;;228.00;41.53;;;1.40;99.90;;;;;;5033688;28;20132;-80
2021/12/11 05:46:56;;;;;;;234.43;43.03;;;1.40;99.90;;;;;;5032915;28;20096;-80
2021/12/11 05:49:25;;;;;;;212.73;38.78;;;1.40;99.90;;;;;;5015849;28;20140;-81
2021/12/11 05:51:53;;;;;;;230.13;41.85;;;1.40;99.90;;;;;;5011377;28;20129;-81
2021/12/11 05:54:26;;;;;;;245.57;43.70;;;1.40;99.90;;;;;;4996952;28;20084;-81
2021/12/11 05:56:59;;;;;;;263.27;43.30;;;1.40;99.90;;;;;;4995938;28;20727;-81
2021/12/11 05:59:27;;;;;;;228.10;43.38;;;1.40;99.90;;;;;;5027416;28;20077;-81
2021/12/11 06:01:57;;;;;;;247.25;42.40;;;1.40;99.90;;;;;;5011943;28;20136;-81
2021/12/11 06:04:34;;;;;;;227.60;40.90;;;1.40;99.90;;;;;;5026168;28;20565;-81
2021/12/11 06:07:06;;;;;;;266.98;43.47;;;1.30;99.90;;;;;;5015705;28;20073;-81
2021/12/11 06:09:35;;;;;;;266.15;43.55;;;1.30;99.90;;;;;;5032797;28;20045;-81
2021/12/11 06:12:06;;;;;;;232.40;41.45;;;1.40;99.90;;;;;;5028977;28;20650;-81
2021/12/11 06:14:35;;;;;;;283.33;45.78;;;1.40;99.90;;;;;;5022278;28;20041;-81
2021/12/11 06:17:05;;;;;;;226.35;40.40;;;1.40;99.90;;;;;;5013363;28;20499;-81
2021/12/11 06:19:33;;;;;;;245.75;43.38;;;1.40;99.90;;;;;;5013596;28;20077;-81
2021/12/11 06:22:01;;;;;;;234.82;40.47;;;1.40;99.90;;;;;;4996334;28;20112;-81
2021/12/11 06:24:30;;;;;;;240.75;43.42;;;1.40;99.90;;;;;;5013532;28;20499;-81
2021/12/11 06:26:58;;;;;;;249.95;43.17;;;1.40;99.90;;;;;;5004370;28;20054;-81
2021/12/11 06:29:25;;;;;;;227.20;41.97;;;1.40;99.90;;;;;;5015362;28;20041;-79
2021/12/11 06:31:53;;;;;;;218.60;43.80;;;1.40;99.90;;;;;;5020858;28;20132;-79
2021/12/11 06:34:22;;;;;;;268.98;43.13;;;1.50;99.90;;;;;;5029055;28;20124;-79
2021/12/11 06:36:49;;;;;;;282.02;44.38;;;1.40;99.90;;;;;;4996013;28;20054;-80
2021/12/11 06:39:19;;;;;;;264.67;42.83;;;1.50;99.90;;;;;;4985419;28;20119;-80
2021/12/11 06:41:50;;;;;;;241.00;43.20;;;1.40;99.90;;;;;;5023913;28;20080;-80
2021/12/11 06:44:18;;;;;;;264.05;43.10;;;1.40;99.90;;;;;;5029589;28;20572;-80
2021/12/11 06:46:53;;;;;;;232.65;43.88;;;1.50;99.90;;;;;;4995757;28;20136;-80
2021/12/11 06:49:21;;;;;;;230.65;43.25;;;1.50;99.90;;;;;;4995579;28;20054;-79
2021/12/11 06:51:48;;;;;;;234.10;45.05;;;1.50;99.90;;;;;;4982281;28;20153;-79
2021/12/11 06:54:15;;;;;;;242.18;42.30;;;1.50;99.90;;;;;;5004717;28;20144;-80
2021/12/11 06:56:42;;;;;;;251.90;42.80;;;1.50;99.90;;;;;;5013648;28;20077;-79
2021/12/11 06:59:10;;;;;;;247.88;44.05;;;1.50;99.90;;;;;;5022527;28;20790;-79
2021/12/11 07:01:42;;;;;;;226.25;44.60;;;1.50;99.90;;;;;;5003515;28;20156;-79
2021/12/11 07:04:11;;;;;;;222.70;40.28;;;1.50;99.90;;;;;;5015360;28;20067;-79
2021/12/11 07:06:41;;;;;;;228.40;43.47;;;1.60;99.90;;;;;;5012295;28;20080;-79
2021/12/11 07:09:10;;;;;;;214.52;41.63;;;1.50;99.90;;;;;;4995074;28;20089;-79
2021/12/11 07:11:39;;;;;;;248.63;42.63;;;1.60;99.90;;;;;;5025248;28;20073;-79
2021/12/11 07:14:07;;;;;;;217.18;40.63;;;1.60;99.90;;;;;;5019832;28;20042;-79
2021/12/11 07:16:35;;;;;;;223.90;40.30;;;1.60;99.90;;;;;;5012391;28;20469;-79
2021/12/11 07:19:04;;;;;;;222.05;42.03;;;1.60;99.90;;;;;;4994387;28;20100;-80
2021/12/11 07:21:31;;;;;;;204.38;38.38;;;1.60;99.90;;;;;;5012384;28;20138;-79
2021/12/11 07:23:59;;;;;;;201.35;41.25;;;1.60;99.90;;;;;;5012658;28;20060;-79
2021/12/11 07:26:31;;;;;;;220.77;40.22;;;1.60;99.90;;;;;;4995016;28;20137;-79
2021/12/11 07:29:02;;;;;;;206.23;39.13;;;1.70;99.90;;;;;;5021357;28;20463;-79
2021/12/11 07:31:30;;;;;;;210.63;41.00;;;1.70;99.90;;;;;;5024668;28;20136;-79
2021/12/11 07:33:58;;;;;;;199.60;39.70;;;1.70;99.90;;;;;;5013175;28;20500;-79
2021/12/11 07:36:25;;;;;;;210.73;38.25;;;1.70;99.90;;;;;;5012168;28;20140;-79
2021/12/11 07:38:52;;;;;;;201.65;39.38;;;1.70;99.90;;;;;;5011849;28;20148;-80
2021/12/11 07:41:20;;;;;;;206.57;40.50;;;1.70;99.90;;;;;;5018399;28;20811;-79
2021/12/11 07:43:55;;;;;;;186.00;39.90;;;1.70;99.90;;;;;;5012396;28;20073;-79
2021/12/11 07:46:25;;;;;;;183.60;38.83;;;1.70;99.90;;;;;;5029940;28;20041;-78
2021/12/11 07:48:53;;;;;;;191.77;38.60;;;1.70;99.90;;;;;;4990831;28;20111;-78
2021/12/11 07:51:23;;;;;;;210.00;38.88;;;1.70;99.90;;;;;;4977684;28;20551;-78
2021/12/11 07:53:50;;;;;;;209.27;39.35;;;1.80;99.90;;;;;;4991707;28;20132;-79
2021/12/11 07:56:18;;;;;;;191.15;38.92;;;1.80;99.90;;;;;;5010331;28;20081;-79
2021/12/11 07:58:47;;;;;;;193.77;39.75;;;1.80;99.90;;;;;;4999849;28;20132;-78
2021/12/11 08:01:14;;;;;;;199.82;38.25;;;1.80;99.90;;;;;;5002608;28;20810;-79
2021/12/11 08:03:42;;;;;;;199.98;38.97;;;1.90;99.90;;;;;;5010434;28;20080;-79
2021/12/11 08:06:11;;;;;;;190.10;37.08;;;1.90;99.90;;;;;;5010314;28;20049;-80
2021/12/11 08:08:42;;;;;;;177.85;36.13;;;1.90;99.90;;;;;;4991604;28;20462;-79
2021/12/11 08:11:13;;;;;;;197.88;38.97;;;2.00;99.90;;;;;;4995782;28;20073;-78
2021/12/11 08:13:43;;;;;;;184.18;37.97;;;2.00;99.90;;;;;;5008361;28;20107;-79
2021/12/11 08:16:14;;;;;;;173.52;38.00;;;2.00;99.90;;;;;;5009113;28;20148;-79
2021/12/11 08:18:41;;;;;;;175.70;37.67;;;2.10;99.90;;;;;;5009860;28;20054;-79
2021/12/11 08:21:10;;;;;;;192.73;38.90;;;2.10;99.90;;;;;;4992411;28;20085;-78
2021/12/11 08:23:44;;;;;;;176.57;36.33;;;2.20;99.90;;;;;;5009965;28;20157;-79
2021/12/11 08:26:15;;;;;;;179.40;38.25;;;2.20;99.90;;;;;;5024276;28;20487;-79
2021/12/11 08:28:42;;;;;;;170.32;37.33;;;2.20;99.90;;;;;;5029410;28;20065;-79
2021/12/11 08:31:09;;;;;;;180.73;36.53;;;2.20;99.90;;;;;;4999648;28;20455;-79
2021/12/11 08:33:36;;;;;;;186.73;38.30;;;2.20;99.90;;;;;;4993070;28;20046;-79
2021/12/11 08:36:04;;;;;;;168.50;37.63;;;2.30;99.90;;;;;;5003964;28;20057;-79
2021/12/11 08:38:31;;;;;;;172.90;36.75;;;2.30;99.90;;;;;;4992718;28;20069;-79
2021/12/11 08:41:00;;;;;;;191.82;38.13;;;2.40;99.90;;;;;;5011339;28;20464;-79
2021/12/11 08:43:33;;;;;;;201.48;39.90;;;2.30;99.90;;;;;;4993051;28;20129;-78
2021/12/11 08:46:12;;;;;;;174.73;36.50;;;2.40;99.90;;;;;;4993717;28;20514;-78
2021/12/11 08:48:47;;;;;;;178.40;37.83;;;2.40;99.90;;;;;;4993054;28;20066;-77
2021/12/11 08:51:19;;;;;;;196.00;37.28;;;2.40;99.90;;;;;;4998712;28;20079;-78
2021/12/11 08:53:46;;;;;;;174.35;34.25;;;2.40;99.90;;;;;;4992072;28;20074;-78
2021/12/11 08:56:14;;;;;;;183.60;39.28;;;2.50;99.90;;;;;;4994239;28;20145;-78
2021/12/11 08:58:43;;;;;;;182.65;36.25;;;2.50;99.90;;;;;;4994237;28;20073;-77
2021/12/11 09:01:34;;;;;;;148.23;34.03;;;2.50;99.90;;;;;;5007415;28;20744;-78
2021/12/11 09:04:12;;;;;;;173.90;35.17;;;2.60;99.90;;;;;;4990306;28;20089;-77
2021/12/11 09:06:42;;;;;;;171.80;35.55;;;2.60;99.90;;;;;;5005412;28;20046;-77
2021/12/11 09:09:15;;;;;;;161.85;34.25;;;2.60;99.90;;;;;;5005627;28;20073;-78
2021/12/11 09:11:49;;;;;;;156.60;33.97;;;2.70;99.90;;;;;;5009243;28;20080;-80
2021/12/11 09:14:21;;;;;;;173.60;34.70;;;2.70;99.90;;;;;;4990879;28;20069;-78
2021/12/11 09:17:00;;;;;;;161.77;36.45;;;2.80;99.90;;;;;;4992917;28;20657;-77
2021/12/11 09:19:34;;;;;;;154.93;35.45;;;2.80;99.90;;;;;;4990662;28;20077;-78
2021/12/11 09:22:06;;;;;;;144.13;34.53;;;2.80;99.90;;;;;;4989739;28;20050;-77
2021/12/11 09:24:54;;;;;;;153.88;34.78;;;2.90;99.90;;;;;;5005810;28;20562;-79
2021/12/11 09:27:52;;;;;;;152.13;34.05;;;2.90;99.90;;;;;;4983513;28;20545;-82
2021/12/11 09:30:52;;;;;;;143.30;33.35;;;3.00;99.90;;;;;;4989911;28;20069;-79
2021/12/11 09:33:26;;;;;;;157.15;33.95;;;3.00;99.90;;;;;;4998456;28;20535;-78
2021/12/11 09:35:59;;;;;;;151.02;34.42;;;3.10;99.90;;;;;;4989802;28;20145;-81
2021/12/11 09:38:33;;;;;;;151.68;34.60;;;3.10;99.90;;;;;;4990696;28;20545;-78
2021/12/11 09:41:21;;;;;;;151.52;35.20;;;3.10;99.90;;;;;;5010887;28;20046;-78
2021/12/11 09:43:54;;;;;;;152.20;33.05;;;3.20;99.90;;;;;;4982656;28;20749;-79
2021/12/11 09:46:30;;;;;;;165.20;33.05;;;3.20;99.90;;;;;;4994605;28;20081;-83
2021/12/11 09:49:00;;;;;;;144.88;33.92;;;3.20;99.90;;;;;;5010060;28;20062;-78
2021/12/11 09:51:33;;;;;;;133.35;31.52;;;3.30;99.90;;;;;;5007706;28;20077;-77
2021/12/11 09:54:18;;;;;;;142.38;34.38;;;3.30;99.90;;;;;;5005741;28;20133;-78
2021/12/11 09:56:54;;;;;;;156.52;33.75;;;3.40;99.90;;;;;;4988111;28;20129;-77
2021/12/11 09:59:25;;;;;;;155.48;35.22;;;3.40;99.90;;;;;;4987660;28;20132;-77
2021/12/11 10:01:55;;;;;;;142.68;32.10;;;3.40;99.90;;;;;;5005266;28;20144;-79
2021/12/11 10:05:01;;;;;;;152.18;35.45;;;3.50;99.90;;;;;;5004088;28;20450;-78
2021/12/11 10:07:38;;;;;;;153.48;32.75;;;3.60;99.90;;;;;;4994861;28;20123;-76
2021/12/11 10:10:15;;;;;;;160.60;35.08;;;3.70;99.90;;;;;;4999740;28;20077;-77
2021/12/11 10:12:47;;;;;;;145.55;34.72;;;3.90;99.90;;;;;;5013574;28;20046;-76
2021/12/11 10:15:20;;;;;;;132.05;32.67;;;4.00;99.90;;;;;;4987910;28;20650;-76
2021/12/11 10:17:54;;;;;;;121.80;32.10;;;4.20;99.90;;;;;;4995061;28;20442;-76
2021/12/11 10:20:39;;;;;;;129.85;34.30;;;4.70;99.90;;;;;;5011077;28;20125;-76
2021/12/11 10:23:16;;;;;;;135.80;34.05;;;5.30;99.90;;;;;;5021647;28;20631;-78
2021/12/11 10:25:45;;;;;;;137.07;36.13;;;5.20;99.90;;;;;;5008346;28;20197;-76
2021/12/11 10:28:18;;;;;;;141.68;34.05;;;4.90;99.90;;;;;;5013893;28;20124;-76
2021/12/11 10:31:14;;;;;;;143.77;34.38;;;4.60;99.90;;;;;;5006238;22;20064;-77
2021/12/11 10:33:42;;;;;;;151.25;35.63;;;4.40;99.90;;;;;;5021789;28;20048;-77
2021/12/11 10:36:20;;;;;;;162.32;37.15;;;4.50;99.90;;;;;;5000023;28;20061;-78
2021/12/11 10:38:48;;;;;;;159.45;38.85;;;4.50;99.90;;;;;;5019217;28;20128;-78
2021/12/11 10:41:25;;;;;;;145.68;36.50;;;4.80;99.90;;;;;;5027682;28;20136;-77
2021/12/11 10:44:00;;;;;;;135.10;36.20;;;5.30;99.90;;;;;;5017488;28;20085;-78
2021/12/11 10:46:32;;;;;;;133.93;35.15;;;5.30;99.90;;;;;;5017760;28;20048;-77
2021/12/11 10:49:02;;;;;;;140.38;36.97;;;5.00;99.90;;;;;;5015857;28;20450;-78
2021/12/11 10:51:33;;;;;;;130.85;35.75;;;4.80;99.90;;;;;;5023659;28;20160;-78
2021/12/11 10:54:00;;;;;;;151.40;37.35;;;4.60;99.90;;;;;;5020454;28;20128;-77
2021/12/11 10:56:28;;;;;;;141.38;37.28;;;4.40;99.90;;;;;;5016190;28;20129;-78
2021/12/11 10:59:02;;;;;;;127.85;32.92;;;4.30;99.90;;;;;;5020395;28;20085;-77
2021/12/11 11:01:36;;;;;;;137.13;36.35;;;4.20;99.90;;;;;;5030334;28;20058;-77
2021/12/11 11:04:12;;;;;;;133.52;34.70;;;4.50;99.90;;;;;;5015535;28;20085;-77
2021/12/11 11:06:40;;;;;;;135.70;37.05;;;5.20;99.90;;;;;;5020401;28;20080;-78
2021/12/11 11:09:09;;;;;;;152.43;38.42;;;5.90;99.90;;;;;;5029333;28;20136;-79
2021/12/11 11:11:38;;;;;;;134.15;36.53;;;6.50;99.90;;;;;;5019147;28;20088;-78
2021/12/11 11:14:08;;;;;;;139.73;37.60;;;7.30;99.90;;;;;;5016621;28;20551;-78
2021/12/11 11:16:38;;;;;;;112.20;33.20;;;7.40;99.90;;;;;;4999343;28;20462;-78
2021/12/11 11:19:05;;;;;;;109.07;33.33;;;7.60;99.90;;;;;;5023823;28;20056;-77
2021/12/11 11:21:42;;;;;;;104.72;33.20;;;8.00;99.90;;;;;;5003784;28;20137;-78
2021/12/11 11:24:11;;;;;;;104.70;32.67;;;8.10;99.90;;;;;;5012749;28;20149;-78
2021/12/11 11:26:43;;;;;;;101.65;35.42;;;8.40;99.90;;;;;;5019387;28;20145;-78
2021/12/11 11:29:17;;;;;;;105.03;32.63;;;8.50;99.90;;;;;;5032853;28;20053;-78
2021/12/11 11:31:46;;;;;;;106.20;33.38;;;8.20;99.90;;;;;;5028616;28;20089;-77
2021/12/11 11:34:18;;;;;;;97.07;34.13;;;8.40;99.90;;;;;;5012064;28;20057;-78
2021/12/11 11:36:46;;;;;;;94.28;32.75;;;9.20;99.90;;;;;;5015563;28;20084;-79
2021/12/11 11:39:20;;;;;;;90.93;32.38;;;9.10;99.90;;;;;;5000685;28;20042;-79
2021/12/11 11:41:51;;;;;;;85.68;30.50;;;9.00;99.90;;;;;;4991163;28;20085;-78
2021/12/11 11:44:21;;;;;;;98.88;32.42;;;8.70;99.90;;;;;;4992154;28;20048;-78
2021/12/11 11:49:38;;;;;;;100.25;30.45;;;7.70;99.90;;;;;;4984669;28;20103;-78
2021/12/11 11:52:11;;;;;;;94.05;30.83;;;6.90;99.90;;;;;;4981602;28;20105;-78
2021/12/11 11:54:43;;;;;;;107.53;30.35;;;6.20;99.90;;;;;;4987212;28;20173;-78
2021/12/11 11:57:17;;;;;;;100.35;29.70;;;5.90;99.90;;;;;;4985897;28;20444;-78
2021/12/11 11:59:45;;;;;;;96.13;28.52;;;5.60;99.90;;;;;;4981981;28;20907;-78
2021/12/11 12:02:18;;;;;;;114.30;31.65;;;5.80;99.90;;;;;;4988082;28;20128;-79
2021/12/11 12:04:51;;;;;;;105.43;30.45;;;6.30;99.90;;;;;;4993894;28;20523;-77
2021/12/11 12:07:25;;;;;;;98.60;30.23;;;6.40;99.90;;;;;;4970265;28;20129;-80
2021/12/11 12:09:54;;;;;;;100.20;29.80;;;6.40;99.90;;;;;;4985198;28;20531;-79
2021/12/11 12:12:24;;;;;;;90.82;30.30;;;6.20;99.90;;;;;;4987673;28;20058;-77
2021/12/11 12:14:53;;;;;;;102.72;29.35;;;5.70;99.90;;;;;;4967657;28;20525;-77
2021/12/11 12:17:21;;;;;;;100.53;28.48;;;5.30;99.90;;;;;;4971021;28;20133;-77
2021/12/11 12:19:51;;;;;;;95.63;29.35;;;4.90;99.90;;;;;;4986801;28;20797;-78
2021/12/11 12:22:19;;;;;;;105.70;28.40;;;4.60;99.90;;;;;;4974989;28;20082;-77
2021/12/11 12:24:48;;;;;;;93.35;27.88;;;4.60;99.90;;;;;;4990519;28;20090;-77
2021/12/11 12:27:18;;;;;;;98.60;29.42;;;4.50;99.90;;;;;;4991006;28;20727;-77
2021/12/11 12:29:46;;;;;;;98.53;29.48;;;4.60;99.90;;;;;;4997910;28;20400;-77
2021/12/11 12:32:18;;;;;;;94.28;27.63;;;4.70;99.90;;;;;;4981296;28;20089;-77
2021/12/11 12:34:45;;;;;;;106.68;29.23;;;4.80;99.90;;;;;;4984077;28;20078;-77
2021/12/11 12:37:13;;;;;;;91.85;27.30;;;4.90;99.90;;;;;;4992822;28;20561;-77
2021/12/11 12:39:45;;;;;;;106.05;28.83;;;4.80;99.90;;;;;;4976808;28;20138;-77
2021/12/11 12:42:26;;;;;;;103.15;28.33;;;4.80;99.90;;;;;;4973168;28;20141;-77
2021/12/11 12:45:16;;;;;;;93.80;27.92;;;4.70;99.90;;;;;;4989760;28;20101;-77
2021/12/11 12:47:55;;;;;;;88.30;25.35;;;4.60;99.90;;;;;;4984670;28;20573;-76
2021/12/11 12:50:33;;;;;;;80.93;25.88;;;4.60;99.90;;;;;;4990415;28;20050;-77
2021/12/11 12:53:01;;;;;;;91.82;26.35;;;4.60;99.90;;;;;;4989785;28;20088;-76
2021/12/11 12:55:33;;;;;;;91.65;26.10;;;4.60;99.90;;;;;;4971236;28;20082;-76
2021/12/11 12:58:04;;;;;;;83.20;25.73;;;4.60;99.90;;;;;;4992117;28;20133;-77
2021/12/11 13:00:54;;;;;;;93.60;26.92;;;4.70;99.90;;;;;;4998213;28;20049;-77
2021/12/11 13:03:26;;;;;;;88.20;27.75;;;4.60;99.90;;;;;;4991251;28;20101;-77
2021/12/11 13:05:58;;;;;;;100.25;26.27;;;4.60;99.90;;;;;;4972667;28;20095;-77